Time;durP1;ratioP1;P1;durP2;ratioP2;P2;SDS_P1;SDS_P2;PMS_P1;PMS_P2;Temp;Humidity;BMP_temperature;BMP_pressure;BME280_temperature;BME280_humidity;BME280_pressure;Samples;Min_cycle;Max_cycle;Signal;HPM_P1;HPM_P2
2021/10/01 00:01:27;;;;;;;;;;;;;;;8.11;76.04;99378.31;1636089;86;20193;-89
2021/10/01 00:03:53;;;;;;;;;;;;;;;7.98;76.01;99369.72;1624032;87;24887;-88
2021/10/01 00:06:19;;;;;;;;;;;;;;;7.97;76.01;99369.33;1603871;87;21875;-88
2021/10/01 00:08:45;;;;;;;;;;;;;;;8.07;76.07;99367.64;1626263;87;26053;-84
2021/10/01 00:11:12;;;;;;;;;;;;;;;8.07;76.13;99375.45;1630559;87;20430;-83
2021/10/01 00:13:41;;;;;;;;;;;;;;;8.02;76.16;99376.13;1623742;87;20195;-84
2021/10/01 00:16:07;;;;;;;;;;;;;;;7.97;76.19;99369.33;1625573;87;24940;-87
2021/10/01 00:18:33;;;;;;;;;;;;;;;7.98;76.19;99376.69;1617664;87;22033;-88
2021/10/01 00:20:59;;;;;;;;;;;;;;;7.93;76.22;99378.66;1625323;87;21065;-89
2021/10/01 00:23:26;;;;;;;;;;;;;;;7.89;76.23;99379.72;1627029;87;25341;-89
2021/10/01 00:25:52;;;;;;;;;;;;;;;7.87;76.27;99378.47;1629308;87;20210;-88
2021/10/01 00:28:19;;;;;;;;;;;;;;;7.89;76.28;99374.50;1623887;87;24974;-89
2021/10/01 00:30:50;;;;;;;;;;;;;;;7.86;76.29;99363.74;1624591;87;22887;-89
2021/10/01 00:33:17;;;;;;;;;;;;;;;7.84;76.32;99359.08;1633672;87;25997;-88
2021/10/01 00:35:46;;;;;;;;;;;;;;;7.93;76.35;99356.05;1634305;87;24473;-88
2021/10/01 00:38:13;;;;;;;;;;;;;;;8.10;76.38;99354.45;1624854;87;20214;-88
2021/10/01 00:40:39;;;;;;;;;;;;;;;8.14;76.42;99356.00;1625142;87;24807;-83
2021/10/01 00:43:05;;;;;;;;;;;;;;;8.01;76.42;99356.18;1624220;87;22900;-82
2021/10/01 00:45:31;;;;;;;;;;;;;;;7.86;76.40;99352.47;1623142;87;26013;-83
2021/10/01 00:47:58;;;;;;;;;;;;;;;7.73;76.35;99351.33;1626821;87;24500;-83
2021/10/01 00:50:31;;;;;;;;;;;;;;;7.63;76.32;99356.11;1624232;87;20253;-82
2021/10/01 00:52:58;;;;;;;;;;;;;;;7.51;76.30;99350.96;1626908;87;25015;-83
2021/10/01 00:55:25;;;;;;;;;;;;;;;7.45;76.29;99352.97;1623227;87;21557;-88
2021/10/01 00:57:51;;;;;;;;;;;;;;;7.45;76.32;99345.16;1627623;87;25977;-84
2021/10/01 01:00:27;;;;;;;;;;;;;;;7.53;76.38;99343.06;1630155;85;25311;-84
2021/10/01 01:02:51;;;;;;;;;;;;;;;7.48;76.43;99341.96;1629964;85;20253;-88
2021/10/01 01:05:22;;;;;;;;;;;;;;;7.38;76.45;99343.27;1634776;87;25380;-88
2021/10/01 01:07:55;;;;;;;;;;;;;;;7.33;76.45;99342.62;1623855;86;21995;-88
2021/10/01 01:10:25;;;;;;;;;;;;;;;7.30;76.48;99340.16;1630191;87;26701;-87
2021/10/01 01:13:02;;;;;;;;;;;;;;;7.29;76.51;99339.76;1633458;87;24452;-83
2021/10/01 01:15:29;;;;;;;;;;;;;;;7.43;76.59;99340.46;1631355;87;20242;-88
2021/10/01 01:17:57;;;;;;;;;;;;;;;7.64;76.69;99345.23;1638356;87;24697;-88
2021/10/01 01:20:46;;;;;;;;;;;;;;;7.79;76.76;99339.34;1634499;87;22879;-86
2021/10/01 01:23:16;;;;;;;;;;;;;;;7.93;76.81;99336.96;1638861;87;25485;-87
2021/10/01 01:25:59;;;;;;;;;;;;;;;8.03;76.84;99336.93;1640972;87;25303;-88
2021/10/01 01:28:44;;;;;;;;;;;;;;;7.93;76.83;99330.44;1630954;87;20301;-88
2021/10/01 01:31:12;;;;;;;;;;;;;;;7.79;76.82;99330.22;1632677;87;25344;-88
2021/10/01 01:33:40;;;;;;;;;;;;;;;7.68;76.79;99329.84;1637585;85;22197;-84
2021/10/01 01:36:13;;;;;;;;;;;;;;;7.58;76.75;99330.71;1633388;87;26001;-87
2021/10/01 01:38:47;;;;;;;;;;;;;;;7.50;76.74;99321.91;1629205;87;24559;-87
2021/10/01 01:41:14;;;;;;;;;;;;;;;7.61;76.74;99329.72;1638184;87;20196;-86
2021/10/01 01:43:41;;;;;;;;;;;;;;;7.72;76.73;99321.83;1638577;87;24839;-86
2021/10/01 01:46:07;;;;;;;;;;;;;;;7.64;76.74;99327.81;1638440;87;21982;-86
2021/10/01 01:48:34;;;;;;;;;;;;;;;7.56;76.71;99329.92;1635648;87;26031;-88
2021/10/01 01:51:01;;;;;;;;;;;;;;;7.64;76.72;99321.30;1628303;87;24420;-88
2021/10/01 01:53:28;;;;;;;;;;;;;;;7.73;76.72;99324.83;1632302;87;20929;-88
2021/10/01 01:55:58;;;;;;;;;;;;;;;7.78;76.72;99320.25;1638219;87;24736;-87
2021/10/01 01:58:24;;;;;;;;;;;;;;;7.85;76.73;99321.69;1633364;87;21995;-87
2021/10/01 02:00:50;;;;;;;;;;;;;;;7.88;76.72;99318.92;1629525;85;21049;-86
2021/10/01 02:03:16;;;;;;;;;;;;;;;7.88;76.71;99322.84;1631942;87;20314;-83
2021/10/01 02:05:44;;;;;;;;;;;;;;;7.80;76.67;99322.31;1620067;87;20378;-87
2021/10/01 02:08:10;;;;;;;;;;;;;;;7.71;76.58;99320.13;1632434;87;25432;-87
2021/10/01 02:10:37;;;;;;;;;;;;;;;7.64;76.51;99323.91;1627077;87;22074;-85
2021/10/01 02:13:07;;;;;;;;;;;;;;;7.56;76.46;99325.56;1630490;87;26085;-83
2021/10/01 02:15:34;;;;;;;;;;;;;;;7.52;76.45;99325.77;1629986;87;24526;-87
2021/10/01 02:18:03;;;;;;;;;;;;;;;7.52;76.46;99322.70;1606456;87;20193;-87
2021/10/01 02:20:31;;;;;;;;;;;;;;;7.51;76.51;99317.10;1620125;87;24927;-87
2021/10/01 02:22:58;;;;;;;;;;;;;;;7.37;76.55;99321.19;1629508;87;22024;-83
2021/10/01 02:28:25;;;;;;;;;;;;;;;7.04;76.55;99316.94;1621674;87;25729;-87
2021/10/01 02:30:52;;;;;;;;;;;;;;;6.96;76.56;99317.28;1618581;87;20321;-88
2021/10/01 02:33:20;;;;;;;;;;;;;;;6.99;76.61;99309.78;1632105;87;24972;-87
2021/10/01 02:35:46;;;;;;;;;;;;;;;7.17;76.70;99309.03;1600739;87;21825;-87
2021/10/01 02:38:12;;;;;;;;;;;;;;;7.33;76.76;99306.62;1621718;87;25974;-88
2021/10/01 02:40:39;;;;;;;;;;;;;;;7.35;76.79;99306.11;1623355;87;24990;-87
2021/10/01 02:43:05;;;;;;;;;;;;;;;7.33;76.89;99311.38;1628732;87;20278;-87
2021/10/01 02:45:31;;;;;;;;;;;;;;;7.19;76.93;99312.42;1629478;87;25080;-87
2021/10/01 02:47:57;;;;;;;;;;;;;;;7.04;76.91;99301.33;1626136;87;22094;-88
2021/10/01 02:50:23;;;;;;;;;;;;;;;6.92;76.89;99301.41;1628162;87;25945;-88
2021/10/01 02:53:15;;;;;;;;;;;;;;;6.83;76.87;99300.91;1627452;87;24432;-87
2021/10/01 02:55:43;;;;;;;;;;;;;;;6.73;76.88;99292.20;1627250;87;20231;-86
2021/10/01 02:58:11;;;;;;;;;;;;;;;6.81;76.89;99293.20;1628210;86;24762;-86
2021/10/01 03:00:38;;;;;;;;;;;;;;;7.01;76.98;99293.21;1626669;87;21982;-86
2021/10/01 03:03:06;;;;;;;;;;;;;;;7.15;77.04;99292.16;1627699;86;26060;-87
2021/10/01 03:05:33;;;;;;;;;;;;;;;7.09;77.08;99288.52;1628846;86;25514;-84
2021/10/01 03:07:59;;;;;;;;;;;;;;;6.97;77.12;99285.60;1629386;86;20215;-83
2021/10/01 03:10:25;;;;;;;;;;;;;;;6.94;77.15;99288.31;1631916;86;24765;-84
2021/10/01 03:12:54;;;;;;;;;;;;;;;6.83;77.16;99282.25;1629158;86;22587;-83
2021/10/01 03:15:21;;;;;;;;;;;;;;;6.73;77.16;99281.80;1630427;86;26063;-84
2021/10/01 03:17:54;;;;;;;;;;;;;;;6.65;77.16;99281.27;1630253;86;25220;-83
2021/10/01 03:20:20;;;;;;;;;;;;;;;6.59;77.16;99281.97;1639290;85;20249;-87
2021/10/01 03:22:50;;;;;;;;;;;;;;;6.52;77.18;99276.16;1633466;86;24646;-87
2021/10/01 03:25:18;;;;;;;;;;;;;;;6.39;77.17;99262.39;1631111;86;21998;-87
2021/10/01 03:27:46;;;;;;;;;;;;;;;6.43;77.23;99271.34;1629739;86;26095;-88
2021/10/01 03:30:15;;;;;;;;;;;;;;;6.36;77.25;99271.17;1635790;86;24057;-87
2021/10/01 03:32:45;;;;;;;;;;;;;;;6.31;77.25;99267.91;1640943;86;20505;-87
2021/10/01 03:35:12;;;;;;;;;;;;;;;6.31;77.30;99265.31;1632105;86;24862;-88
2021/10/01 03:37:38;;;;;;;;;;;;;;;6.49;77.39;99266.34;1631254;86;22027;-88
2021/10/01 03:40:06;;;;;;;;;;;;;;;6.72;77.50;99268.84;1629055;86;26833;-87
2021/10/01 03:42:40;;;;;;;;;;;;;;;6.76;77.60;99263.08;1624677;86;24784;-88
2021/10/01 03:45:08;;;;;;;;;;;;;;;6.86;77.65;99258.73;1622624;87;20271;-88
2021/10/01 03:47:34;;;;;;;;;;;;;;;6.95;77.70;99269.20;1622139;87;24829;-88
2021/10/01 03:50:00;;;;;;;;;;;;;;;7.00;77.71;99266.79;1626148;87;21973;-88
2021/10/01 03:52:26;;;;;;;;;;;;;;;7.01;77.70;99265.03;1621789;86;26035;-88
2021/10/01 03:54:53;;;;;;;;;;;;;;;6.95;77.69;99261.39;1626413;87;24522;-88
2021/10/01 03:57:19;;;;;;;;;;;;;;;6.94;77.66;99266.20;1626148;87;20467;-87
2021/10/01 03:59:48;;;;;;;;;;;;;;;6.87;77.66;99259.58;1619085;87;24879;-88
2021/10/01 04:02:14;;;;;;;;;;;;;;;6.78;77.67;99267.29;1617161;87;20227;-87
2021/10/01 04:04:40;;;;;;;;;;;;;;;6.65;77.64;99262.22;1624063;87;20973;-87
2021/10/01 04:07:06;;;;;;;;;;;;;;;6.57;77.64;99266.41;1617648;86;25115;-88
2021/10/01 04:09:32;;;;;;;;;;;;;;;6.50;77.60;99264.96;1619288;86;20754;-88
2021/10/01 04:12:05;;;;;;;;;;;;;;;6.44;77.60;99274.75;1618735;86;24759;-88
2021/10/01 04:14:33;;;;;;;;;;;;;;;6.45;77.62;99280.35;1640322;86;22050;-83
2021/10/01 04:17:04;;;;;;;;;;;;;;;6.41;77.63;99271.84;1639100;85;26724;-88
2021/10/01 04:19:30;;;;;;;;;;;;;;;6.32;77.62;99273.96;1636379;85;24547;-88
2021/10/01 04:21:56;;;;;;;;;;;;;;;6.24;77.61;99273.80;1639376;85;20261;-88
2021/10/01 04:24:22;;;;;;;;;;;;;;;6.24;77.62;99279.00;1640211;85;24716;-88
2021/10/01 04:26:49;;;;;;;;;;;;;;;6.23;77.62;99273.40;1639317;86;22012;-87
2021/10/01 04:29:22;;;;;;;;;;;;;;;6.18;77.65;99270.58;1662957;84;21759;-87
2021/10/01 04:31:48;;;;;;;;;;;;;;;6.25;77.69;99270.30;1638991;85;24468;-87
2021/10/01 04:34:14;;;;;;;;;;;;;;;6.26;77.74;99270.70;1639783;86;20287;-84
2021/10/01 04:36:41;;;;;;;;;;;;;;;6.33;77.78;99270.46;1639154;86;24802;-83
2021/10/01 04:39:08;;;;;;;;;;;;;;;6.37;77.85;99271.58;1641939;86;22072;-83
2021/10/01 04:41:34;;;;;;;;;;;;;;;6.32;77.84;99268.31;1638558;85;26000;-83
2021/10/01 04:44:00;;;;;;;;;;;;;;;6.41;77.90;99266.64;1640188;86;20278;-83
2021/10/01 04:46:26;;;;;;;;;;;;;;;6.45;77.96;99273.40;1638981;86;20289;-83
2021/10/01 04:48:55;;;;;;;;;;;;;;;6.41;77.99;99263.19;1640631;86;24764;-88
2021/10/01 04:51:20;;;;;;;;;;;;;;;6.33;77.97;99270.46;1641713;86;22110;-85
2021/10/01 04:53:47;;;;;;;;;;;;;;;6.23;77.96;99267.35;1642364;86;26058;-87
2021/10/01 04:56:13;;;;;;;;;;;;;;;6.19;77.94;99266.63;1641483;86;25181;-87
2021/10/01 04:58:41;;;;;;;;;;;;;;;6.13;77.91;99269.47;1644121;85;20321;-87
2021/10/01 05:01:07;;;;;;;;;;;;;;;6.07;77.90;99272.30;1642879;85;24824;-88
2021/10/01 05:03:33;;;;;;;;;;;;;;;6.05;77.90;99272.83;1630448;86;21990;-87
2021/10/01 05:05:59;;;;;;;;;;;;;;;6.08;77.91;99268.80;1625877;86;26026;-86
2021/10/01 05:08:25;;;;;;;;;;;;;;;6.24;77.95;99271.65;1627970;86;24537;-85
2021/10/01 05:10:51;;;;;;;;;;;;;;;6.24;77.99;99270.34;1626790;86;20343;-84
2021/10/01 05:13:18;;;;;;;;;;;;;;;6.24;78.04;99270.34;1627237;86;24820;-83
2021/10/01 05:15:44;;;;;;;;;;;;;;;6.29;78.08;99272.31;1626229;86;21982;-87
2021/10/01 05:18:13;;;;;;;;;;;;;;;6.45;78.14;99268.20;1625303;86;26816;-87
2021/10/01 05:20:44;;;;;;;;;;;;;;;6.59;78.21;99268.97;1627008;86;25267;-88
2021/10/01 05:23:10;;;;;;;;;;;;;;;6.71;78.27;99272.34;1624961;86;20284;-88
2021/10/01 05:25:36;;;;;;;;;;;;;;;6.75;78.30;99279.14;1624413;86;24819;-87
2021/10/01 05:28:13;;;;;;;;;;;;;;;6.68;78.32;99275.08;1626415;86;22224;-87
2021/10/01 05:30:40;;;;;;;;;;;;;;;6.65;78.32;99280.42;1627334;86;25969;-89
2021/10/01 05:33:10;;;;;;;;;;;;;;;6.66;78.32;99272.98;1625658;86;24518;-87
2021/10/01 05:35:36;;;;;;;;;;;;;;;6.72;78.34;99280.55;1622180;87;20247;-88
2021/10/01 05:38:02;;;;;;;;;;;;;;;6.64;78.33;99278.27;1619431;86;25734;-86
2021/10/01 05:40:29;;;;;;;;;;;;;;;6.55;78.30;99275.17;1602798;88;22028;-86
2021/10/01 05:42:55;;;;;;;;;;;;;;;6.47;78.27;99279.40;1626540;86;26075;-88
2021/10/01 05:45:21;;;;;;;;;;;;;;;6.39;78.24;99277.54;1624986;86;20331;-87
2021/10/01 05:47:47;;;;;;;;;;;;;;;6.37;78.23;99281.97;1624279;86;20261;-86
2021/10/01 05:50:15;;;;;;;;;;;;;;;6.35;78.23;99281.17;1629399;86;20233;-86
2021/10/01 05:55:11;;;;;;;;;;;;;;;6.40;78.32;99280.98;1627721;85;26070;-87
2021/10/01 05:57:42;;;;;;;;;;;;;;;6.46;78.39;99279.00;1628051;86;24453;-87
2021/10/01 06:00:06;;;;;;;;;;;;;;;6.48;78.48;99279.80;1628872;86;20546;-88
2021/10/01 06:02:33;;;;;;;;;;;;;;;6.63;78.58;99277.87;1629892;86;24993;-88
2021/10/01 06:04:59;;;;;;;;;;;;;;;6.78;78.67;99280.75;1633813;86;22014;-87
2021/10/01 06:07:25;;;;;;;;;;;;;;;6.99;78.79;99279.41;1633378;86;25955;-88
2021/10/01 06:09:51;;;;;;;;;;;;;;;7.10;78.87;99279.80;1632213;86;20307;-87
2021/10/01 06:12:17;;;;;;;;;;;;;;;7.22;78.95;99280.20;1630957;86;20530;-87
2021/10/01 06:14:49;;;;;;;;;;;;;;;7.36;79.04;99270.05;1632456;86;24791;-88
2021/10/01 06:17:15;;;;;;;;;;;;;;;7.44;79.11;99266.64;1631598;86;21931;-84
2021/10/01 06:19:43;;;;;;;;;;;;;;;7.58;79.20;99267.72;1633200;86;26033;-88
2021/10/01 06:22:10;;;;;;;;;;;;;;;7.70;79.25;99271.53;1632512;86;24463;-88
2021/10/01 06:24:37;;;;;;;;;;;;;;;7.77;79.30;99268.20;1632542;86;20274;-87
2021/10/01 06:27:03;;;;;;;;;;;;;;;7.79;79.35;99267.69;1632206;86;25556;-87
2021/10/01 06:29:30;;;;;;;;;;;;;;;7.84;79.38;99269.17;1631368;86;22055;-84
2021/10/01 06:31:56;;;;;;;;;;;;;;;7.87;79.43;99273.38;1631973;86;26654;-88
2021/10/01 06:34:22;;;;;;;;;;;;;;;7.95;79.48;99272.14;1630890;86;20810;-88
2021/10/01 06:36:48;;;;;;;;;;;;;;;8.04;79.53;99269.55;1630307;86;20247;-87
2021/10/01 06:39:15;;;;;;;;;;;;;;;8.07;79.58;99269.88;1612091;86;25398;-87
2021/10/01 06:41:41;;;;;;;;;;;;;;;8.19;79.62;99279.27;1632097;86;22926;-87
2021/10/01 06:44:09;;;;;;;;;;;;;;;8.23;79.65;99276.92;1632394;86;25988;-87
2021/10/01 06:46:44;;;;;;;;;;;;;;;8.31;79.68;99279.18;1633338;86;23957;-88
2021/10/01 06:49:24;;;;;;;;;;;;;;;8.42;79.71;99280.83;1632807;86;20264;-87
2021/10/01 07:29:31;;;;;;;;;;;;;;;8.03;80.33;99275.67;1631135;86;26017;-86
2021/10/01 08:18:37;;;;;;;;;;;;;;;9.56;83.14;99231.51;1630053;86;26089;-87
2021/10/01 08:20:53;;;;;;;;;;;;;;;9.70;83.27;99223.41;1632838;86;20177;-87
2021/10/01 08:23:19;;;;;;;;;;;;;;;9.81;83.41;99224.52;1631534;86;20243;-85
2021/10/01 08:25:45;;;;;;;;;;;;;;;9.92;83.50;99226.55;1631287;86;20239;-85
2021/10/01 08:28:11;;;;;;;;;;;;;;;10.00;83.59;99223.04;1631573;86;22079;-85
2021/10/01 08:30:37;;;;;;;;;;;;;;;10.09;83.67;99227.78;1629283;86;21069;-85
2021/10/01 08:33:06;;;;;;;;;;;;;;;10.19;83.76;99222.91;1631268;85;25179;-87
2021/10/01 08:35:32;;;;;;;;;;;;;;;10.29;83.79;99210.55;1630779;86;20176;-87
2021/10/01 08:37:59;;;;;;;;;;;;;;;10.41;83.86;99215.55;1631745;86;24749;-87
2021/10/01 08:40:26;;;;;;;;;;;;;;;10.55;83.92;99209.52;1632315;86;22747;-85
2021/10/01 08:42:54;;;;;;;;;;;;;;;10.65;83.96;99206.73;1632130;86;26080;-85
2021/10/01 08:45:21;;;;;;;;;;;;;;;10.73;83.92;99208.47;1631611;86;24441;-87
2021/10/01 08:47:47;;;;;;;;;;;;;;;10.80;83.90;99208.49;1631975;86;20362;-83
2021/10/01 08:50:15;;;;;;;;;;;;;;;10.89;83.80;99203.55;1633430;86;24822;-83
2021/10/01 08:52:41;;;;;;;;;;;;;;;10.99;83.74;99205.16;1630533;86;22064;-87
2021/10/01 08:55:09;;;;;;;;;;;;;;;11.07;83.71;99202.09;1633060;86;21852;-86
2021/10/01 08:57:35;;;;;;;;;;;;;;;11.14;83.68;99199.00;1633642;86;24431;-87
2021/10/01 09:00:03;;;;;;;;;;;;;;;11.21;83.63;99197.70;1632026;86;20873;-87
2021/10/01 09:02:31;;;;;;;;;;;;;;;11.26;83.55;99198.27;1632460;85;24837;-83
2021/10/01 09:04:57;;;;;;;;;;;;;;;11.32;83.49;99197.90;1630145;86;22121;-83
2021/10/01 09:07:24;;;;;;;;;;;;;;;11.40;83.43;99201.84;1631685;86;21008;-83
2021/10/01 09:09:51;;;;;;;;;;;;;;;11.48;83.38;99190.41;1630762;86;24526;-83
2021/10/01 09:12:17;;;;;;;;;;;;;;;11.55;83.31;99191.72;1633360;86;20898;-83
2021/10/01 09:14:45;;;;;;;;;;;;;;;11.60;83.26;99197.05;1632579;86;20734;-85
2021/10/01 09:17:16;;;;;;;;;;;;;;;11.66;83.19;99192.75;1634723;86;21964;-85
2021/10/01 09:19:42;;;;;;;;;;;;;;;11.72;83.16;99192.37;1610697;87;26096;-83
2021/10/01 09:22:08;;;;;;;;;;;;;;;11.80;83.11;99191.91;1631766;86;25157;-85
2021/10/01 09:24:41;;;;;;;;;;;;;;;11.91;83.09;99189.45;1632367;86;20290;-85
2021/10/01 09:27:02;;;;;;;;;;;;;;;12.01;83.06;99194.95;1632893;86;24727;-85
2021/10/01 09:29:32;;;;;;;;;;;;;;;12.06;82.99;99189.78;1633200;86;20271;-85
2021/10/01 09:32:00;;;;;;;;;;;;;;;12.11;82.90;99185.55;1633150;86;26752;-85
2021/10/01 09:34:33;;;;;;;;;;;;;;;12.18;82.79;99187.31;1630737;86;24624;-85
2021/10/01 09:37:00;;;;;;;;;;;;;;;12.26;82.71;99186.36;1631768;86;20253;-83
2021/10/01 09:39:27;;;;;;;;;;;;;;;12.30;82.64;99180.81;1630031;86;24827;-88
2021/10/01 09:41:57;;;;;;;;;;;;;;;12.35;82.53;99176.10;1631140;86;21941;-88
2021/10/01 09:44:29;;;;;;;;;;;;;;;12.44;82.44;99178.58;1629916;86;26052;-87
2021/10/01 09:46:56;;;;;;;;;;;;;;;12.53;82.38;99176.69;1632034;86;25355;-88
2021/10/01 09:49:32;;;;;;;;;;;;;;;12.59;82.27;99171.03;1630066;86;20306;-88
2021/10/01 09:51:58;;;;;;;;;;;;;;;12.66;82.20;99174.91;1635034;86;24850;-88
2021/10/01 09:54:26;;;;;;;;;;;;;;;12.77;82.17;99172.41;1631823;86;22002;-88
2021/10/01 09:56:52;;;;;;;;;;;;;;;12.85;82.12;99169.28;1634584;86;26055;-88
2021/10/01 09:59:19;;;;;;;;;;;;;;;12.94;82.09;99164.24;1611815;87;24394;-87
2021/10/01 10:02:02;;;;;;;;;;;;;;;13.06;82.03;99161.27;1634341;86;20248;-88
2021/10/01 10:04:30;;;;;;;;;;;;;;;13.19;82.02;99163.93;1629396;86;24740;-88
2021/10/01 10:06:56;;;;;;;;;;;;;;;13.30;81.98;99158.77;1629295;86;22062;-88
2021/10/01 10:09:32;;;;;;;;;;;;;;;13.37;81.93;99159.53;1627819;86;26872;-88
2021/10/01 10:11:58;;;;;;;;;;;;;;;13.47;81.81;99167.65;1626570;86;24468;-88
2021/10/01 10:14:24;;;;;;;;;;;;;;;13.58;81.74;99160.32;1629252;86;20237;-83
2021/10/01 10:16:50;;;;;;;;;;;;;;;13.65;81.61;99158.91;1625824;86;24820;-88
2021/10/01 10:19:20;;;;;;;;;;;;;;;13.71;81.49;99155.86;1627979;86;20926;-88
2021/10/01 10:21:44;;;;;;;;;;;;;;;13.79;81.39;99157.01;1626824;86;25634;-88
2021/10/01 10:24:13;;;;;;;;;;;;;;;13.87;81.24;99151.17;1627706;86;25166;-88
2021/10/01 10:26:39;;;;;;;;;;;;;;;14.00;81.15;99142.77;1627730;86;20344;-85
2021/10/01 10:29:06;;;;;;;;;;;;;;;14.11;80.93;99145.94;1629192;86;24741;-83
2021/10/01 10:31:33;;;;;;;;;;;;;;;14.26;80.71;99144.81;1627117;86;22058;-85
2021/10/01 10:33:59;;;;;;;;;;;;;;;14.56;80.66;99149.14;1627022;86;25999;-88
2021/10/01 10:36:41;;;;;;;;;;;;;;;14.76;80.66;99141.08;1625453;86;24492;-85
2021/10/01 10:39:16;;;;;;;;;;;;;;;14.91;80.57;99137.75;1628074;86;20301;-85
2021/10/01 10:41:43;;;;;;;;;;;;;;;15.07;80.46;99140.89;1627801;86;24715;-85
2021/10/01 10:44:14;;;;;;;;;;;;;;;15.22;80.37;99137.06;1627059;86;22046;-83
2021/10/01 10:46:43;;;;;;;;;;;;;;;15.35;80.23;99144.39;1628429;86;26004;-83
2021/10/01 10:49:18;;;;;;;;;;;;;;;15.46;80.10;99138.27;1626500;86;24548;-83
2021/10/01 10:51:55;;;;;;;;;;;;;;;15.54;79.94;99141.67;1629087;86;20156;-88
2021/10/01 10:54:21;;;;;;;;;;;;;;;15.56;79.75;99141.05;1627457;86;24930;-83
2021/10/01 10:56:48;;;;;;;;;;;;;;;15.52;79.50;99147.06;1629465;86;20905;-88
2021/10/01 10:59:30;;;;;;;;;;;;;;;15.52;79.27;99147.53;1636823;85;26854;-88
2021/10/01 11:01:58;;;;;;;;;;;;;;;15.49;79.07;99141.50;1626571;86;24472;-85
2021/10/01 11:04:28;;;;;;;;;;;;;;;15.46;78.82;99133.84;1624825;86;20256;-85
2021/10/01 11:06:54;;;;;;;;;;;;;;;15.47;78.62;99128.92;1620228;87;20501;-88
2021/10/01 11:09:25;;;;;;;;;;;;;;;15.44;78.38;99133.58;1634812;87;22198;-88
2021/10/01 11:11:54;;;;;;;;;;;;;;;15.37;78.13;99128.45;1632560;87;26056;-85
2021/10/01 11:14:25;;;;;;;;;;;;;;;15.32;77.93;99124.86;1623606;87;24130;-84
2021/10/01 11:16:55;;;;;;;;;;;;;;;15.32;77.72;99121.38;1633935;85;20235;-83
2021/10/01 11:19:35;;;;;;;;;;;;;;;15.41;77.57;99127.25;1633339;87;24736;-83
2021/10/01 11:22:02;;;;;;;;;;;;;;;15.45;77.44;99117.64;1671705;86;21983;-84
2021/10/01 11:24:28;;;;;;;;;;;;;;;15.48;77.28;99122.70;1636290;86;25994;-83
2021/10/01 11:26:55;;;;;;;;;;;;;;;15.54;77.15;99116.61;1630521;87;25150;-83
2021/10/01 11:29:26;;;;;;;;;;;;;;;15.53;77.02;99121.52;1626197;87;20219;-85
2021/10/01 11:31:53;;;;;;;;;;;;;;;15.46;76.86;99112.73;1631579;87;24868;-88
2021/10/01 11:34:21;;;;;;;;;;;;;;;15.54;76.77;99110.02;1631835;86;21959;-88
2021/10/01 11:36:49;;;;;;;;;;;;;;;15.57;76.62;99105.80;1607255;87;22862;-88
2021/10/01 11:39:16;;;;;;;;;;;;;;;15.63;76.48;99105.31;1629740;87;20879;-88
2021/10/01 11:41:48;;;;;;;;;;;;;;;15.70;76.34;99095.95;1659036;85;20450;-88
2021/10/01 11:44:15;;;;;;;;;;;;;;;15.60;76.08;99092.38;1626280;87;24844;-88
2021/10/01 11:46:43;;;;;;;;;;;;;;;15.56;75.81;99094.87;1632024;87;22041;-88
2021/10/01 11:49:21;;;;;;;;;;;;;;;15.49;75.56;99086.09;1626855;87;26724;-83
2021/10/01 11:52:05;;;;;;;;;;;;;;;15.52;75.37;99081.11;1630233;86;24611;-88
2021/10/01 11:54:32;;;;;;;;;;;;;;;15.56;75.16;99086.97;1630659;87;20186;-85
2021/10/01 11:57:00;;;;;;;;;;;;;;;15.63;75.01;99077.13;1632082;87;24852;-85
2021/10/01 11:59:27;;;;;;;;;;;;;;;15.72;74.92;99071.58;1625016;87;22682;-85
2021/10/01 12:01:55;;;;;;;;;;;;;;;15.81;74.85;99069.54;1621188;87;26897;-85
2021/10/01 12:04:23;;;;;;;;;;;;;;;15.91;74.80;99073.10;1636982;86;25287;-85
2021/10/01 12:06:49;;;;;;;;;;;;;;;15.96;74.63;99067.44;1625665;87;20260;-87
2021/10/01 12:09:15;;;;;;;;;;;;;;;15.85;74.36;99061.72;1631638;87;20235;-83
2021/10/01 12:11:42;;;;;;;;;;;;;;;15.76;74.10;99062.00;1627199;87;20246;-83
2021/10/01 12:14:10;;;;;;;;;;;;;;;15.70;73.82;99058.53;1637311;87;26759;-83
2021/10/01 12:16:38;;;;;;;;;;;;;;;15.67;73.60;99056.60;1630489;87;24679;-85
2021/10/01 12:19:05;;;;;;;;;;;;;;;15.71;73.54;99049.63;1620204;87;20227;-82
2021/10/01 12:21:32;;;;;;;;;;;;;;;15.72;73.46;99051.78;1630120;87;24706;-83
2021/10/01 12:23:59;;;;;;;;;;;;;;;15.67;73.32;99047.37;1630312;87;22789;-82
2021/10/01 12:26:32;;;;;;;;;;;;;;;15.60;73.15;99040.42;1633167;87;26071;-85
2021/10/01 12:29:03;;;;;;;;;;;;;;;15.59;73.01;99043.20;1621255;87;24676;-88
2021/10/01 12:31:31;;;;;;;;;;;;;;;15.62;72.87;99041.15;1623159;87;20255;-85
2021/10/01 12:33:58;;;;;;;;;;;;;;;15.63;72.76;99033.59;1632116;87;25586;-85
2021/10/01 12:36:24;;;;;;;;;;;;;;;15.65;72.64;99030.84;1634135;87;22056;-83
2021/10/01 12:38:54;;;;;;;;;;;;;;;15.80;72.59;99030.91;1625976;87;25977;-83
2021/10/01 12:41:20;;;;;;;;;;;;;;;15.88;72.57;99026.66;1633760;87;24538;-85
2021/10/01 12:43:52;;;;;;;;;;;;;;;15.94;72.50;99026.64;1628208;85;20223;-88
2021/10/01 12:46:37;;;;;;;;;;;;;;;15.95;72.44;99021.72;1644790;87;24770;-84
2021/10/01 12:49:14;;;;;;;;;;;;;;;15.96;72.33;99019.45;1637264;87;22205;-85
2021/10/01 12:51:40;;;;;;;;;;;;;;;15.96;72.21;99014.16;1637069;87;26040;-88
2021/10/01 12:54:22;;;;;;;;;;;;;;;15.94;72.08;99015.23;1623340;87;24315;-86
2021/10/01 12:56:50;;;;;;;;;;;;;;;15.97;72.01;99006.61;1631232;87;20208;-86
2021/10/01 12:59:18;;;;;;;;;;;;;;;16.06;72.01;99011.11;1625368;87;24761;-88
2021/10/01 13:01:48;;;;;;;;;;;;;;;16.00;71.93;99005.02;1620390;87;23490;-84
2021/10/01 13:04:16;;;;;;;;;;;;;;;16.08;71.89;98999.95;1628583;87;26177;-86
2021/10/01 13:06:42;;;;;;;;;;;;;;;16.12;71.83;98993.92;1634198;85;24498;-86
2021/10/01 13:09:10;;;;;;;;;;;;;;;16.14;71.73;98992.84;1631218;87;20155;-89
2021/10/01 13:11:40;;;;;;;;;;;;;;;16.18;71.59;98985.02;1626335;87;25292;-89
2021/10/01 13:14:18;;;;;;;;;;;;;;;16.16;71.44;98985.61;1635732;85;22013;-89
2021/10/01 13:16:44;;;;;;;;;;;;;;;16.22;71.35;98982.45;1632047;87;26018;-88
2021/10/01 13:19:14;;;;;;;;;;;;;;;16.23;71.23;98970.94;1635534;87;24596;-89
2021/10/01 13:21:42;;;;;;;;;;;;;;;16.15;71.07;98972.05;1623885;85;20183;-86
2021/10/01 13:24:08;;;;;;;;;;;;;;;16.15;70.96;98965.44;1634016;87;24951;-84
2021/10/01 13:26:36;;;;;;;;;;;;;;;16.18;70.87;98966.52;1624902;87;21984;-88
2021/10/01 13:29:04;;;;;;;;;;;;;;;16.12;70.77;98967.52;1639260;85;26071;-88
2021/10/01 13:31:31;;;;;;;;;;;;;;;16.11;70.64;98964.03;1624780;85;24640;-88
2021/10/01 13:33:58;;;;;;;;;;;;;;;16.14;70.63;98955.88;1625397;87;20270;-88
2021/10/01 13:36:24;;;;;;;;;;;;;;;16.16;70.55;98954.40;1629645;87;24845;-88
2021/10/01 13:38:51;;;;;;;;;;;;;;;16.07;70.49;98954.70;1626740;87;21956;-88
2021/10/01 13:41:18;;;;;;;;;;;;;;;15.96;70.47;98946.84;1633892;87;26078;-88
2021/10/01 13:43:45;;;;;;;;;;;;;;;15.97;70.42;98947.20;1636845;87;24582;-88
2021/10/01 13:46:12;;;;;;;;;;;;;;;15.95;70.33;98945.17;1637426;87;20214;-88
2021/10/01 13:48:38;;;;;;;;;;;;;;;15.95;70.17;98941.20;1639192;87;24687;-88
2021/10/01 13:51:04;;;;;;;;;;;;;;;15.92;70.06;98939.31;1627575;87;22064;-88
2021/10/01 13:53:31;;;;;;;;;;;;;;;15.88;70.01;98938.71;1627953;87;26103;-88
2021/10/01 13:55:57;;;;;;;;;;;;;;;15.87;69.92;98941.83;1625345;87;24460;-84
2021/10/01 13:58:23;;;;;;;;;;;;;;;15.85;69.82;98933.70;1630662;86;20234;-83
2021/10/01 14:00:51;;;;;;;;;;;;;;;15.84;69.62;98934.66;1639240;87;24804;-84
2021/10/01 14:03:19;;;;;;;;;;;;;;;15.90;69.49;98934.16;1638196;87;22556;-84
2021/10/01 14:05:45;;;;;;;;;;;;;;;15.89;69.36;98926.72;1623004;86;26117;-84
2021/10/01 14:08:15;;;;;;;;;;;;;;;15.86;69.09;98922.19;1627126;87;25241;-88
2021/10/01 14:10:42;;;;;;;;;;;;;;;15.87;68.89;98921.23;1635495;87;20255;-84
2021/10/01 14:13:14;;;;;;;;;;;;;;;15.89;68.70;98925.87;1633514;87;25521;-88
2021/10/01 14:15:41;;;;;;;;;;;;;;;15.84;68.60;98917.51;1637826;87;22933;-85
2021/10/01 14:18:08;;;;;;;;;;;;;;;15.82;68.49;98927.34;1631469;87;25960;-86
2021/10/01 14:20:36;;;;;;;;;;;;;;;15.93;68.49;98916.73;1628085;87;24428;-87
2021/10/01 14:23:02;;;;;;;;;;;;;;;15.94;68.43;98915.77;1625875;86;20480;-88
2021/10/01 14:25:29;;;;;;;;;;;;;;;16.01;68.33;98914.77;1635882;87;24760;-88
2021/10/01 14:27:59;;;;;;;;;;;;;;;16.06;68.29;98913.42;1626585;87;22072;-88